Time;durP1;ratioP1;P1;durP2;ratioP2;P2;SDS_P1;SDS_P2;PMS_P1;PMS_P2;Temp;Humidity;BMP_temperature;BMP_pressure;BME280_temperature;BME280_humidity;BME280_pressure;Samples;Min_cycle;Max_cycle;Signal;HPM_P1;HPM_P2
2022/06/23 00:00:25;;;;;;;7.35;4.22;;;;;;;;;;5094363;27;20039;-89
2022/06/23 00:02:51;;;;;;;8.00;4.30;;;;;;;;;;5088872;27;20406;-89
2022/06/23 00:05:20;;;;;;;4.80;4.22;;;14.10;99.90;;;;;;5100389;27;20034;-87
2022/06/23 00:07:51;;;;;;;9.98;4.20;;;14.20;99.90;;;;;;5100685;27;20085;-88
2022/06/23 00:10:22;;;;;;;4.63;4.22;;;;;;;;;;5117431;27;20043;-85
2022/06/23 00:12:48;;;;;;;7.05;4.78;;;;;;;;;;5096251;27;20074;-88
2022/06/23 00:15:14;;;;;;;5.50;4.22;;;;;;;;;;5118027;27;20043;-90
2022/06/23 00:17:42;;;;;;;4.95;4.25;;;14.30;99.90;;;;;;5117341;27;20043;-89
2022/06/23 00:20:21;;;;;;;5.53;4.78;;;;;;;;;;5117823;27;20043;-90
2022/06/23 00:22:50;;;;;;;5.35;4.55;;;;;;;;;;5115100;27;20043;-86
2022/06/23 00:25:43;;;;;;;6.45;4.68;;;;;;;;;;5100675;27;20084;-86
2022/06/23 00:28:14;;;;;;;6.85;5.03;;;;;;;;;;5079586;27;20051;-85
2022/06/23 00:30:41;;;;;;;5.63;4.72;;;14.10;99.90;;;;;;5133523;27;20070;-93
2022/06/23 00:33:15;;;;;;;8.57;4.85;;;;;;;;;;5133764;27;20118;-87
2022/06/23 00:35:41;;;;;;;5.68;4.90;;;;;;;;;;5117237;27;20050;-90
2022/06/23 00:38:18;;;;;;;6.00;5.20;;;;;;;;;;5135104;27;20058;-85
2022/06/23 00:40:44;;;;;;;5.05;4.35;;;;;;;;;;5100223;27;20043;-87
2022/06/23 00:43:11;;;;;;;11.40;5.80;;;;;;;;;;5098974;27;20065;-87
2022/06/23 00:45:39;;;;;;;5.57;4.90;;;;;;;;;;5135036;27;20043;-88
2022/06/23 00:48:17;;;;;;;6.60;4.70;;;;;;;;;;5135537;27;20104;-90
2022/06/23 00:50:49;;;;;;;7.00;5.10;;;;;;;;;;5096277;27;20093;-91
2022/06/23 00:53:26;;;;;;;5.60;4.88;;;14.10;99.90;;;;;;5115039;28;20051;-91
2022/06/23 00:56:07;;;;;;;6.88;5.75;;;;;;;;;;5114620;28;20044;-86
2022/06/23 00:58:42;;;;;;;7.40;6.15;;;;;;;;;;5096444;28;20074;-88
2022/06/23 01:01:23;;;;;;;7.35;5.82;;;14.10;99.90;;;;;;5098598;27;20513;-87
2022/06/23 01:03:55;;;;;;;6.88;5.28;;;;;;;;;;5114278;28;20043;-89
2022/06/23 01:06:36;;;;;;;7.55;5.60;;;;;;;;;;5079575;28;20048;-86
2022/06/23 01:09:14;;;;;;;8.10;5.82;;;;;;;;;;5114801;28;20036;-93
2022/06/23 01:11:43;;;;;;;6.88;5.65;;;;;;;;;;5117275;27;20039;-94
2022/06/23 01:14:28;;;;;;;6.72;5.40;;;;;;;;;;5100032;27;20054;-90
2022/06/23 01:17:12;;;;;;;6.50;5.28;;;;;;;;;;5116797;27;20047;-93
2022/06/23 01:19:46;;;;;;;6.45;5.40;;;;;;;;;;5100509;27;20178;-95
2022/06/23 01:22:17;;;;;;;8.60;6.28;;;;;;;;;;5115631;27;20038;-91
2022/06/23 01:25:22;;;;;;;7.10;6.05;;;;;;;;;;5096361;28;20047;-90
2022/06/23 01:27:54;;;;;;;6.80;5.45;;;;;;;;;;4979314;28;20045;-87
2022/06/23 01:30:21;;;;;;;10.35;5.72;;;;;;;;;;4995801;28;20045;-94
2022/06/23 01:33:22;;;;;;;8.20;5.82;;;13.90;99.90;;;;;;4979186;28;20111;-85
2022/06/23 01:35:58;;;;;;;7.78;5.93;;;;;;;;;;4971769;28;20408;-84
2022/06/23 01:38:48;;;;;;;10.10;6.55;;;13.90;99.90;;;;;;4936560;29;20059;-87
2022/06/23 01:41:31;;;;;;;8.55;6.20;;;;;;;;;;4952137;29;20055;-84
2022/06/23 01:44:18;;;;;;;8.97;6.67;;;13.70;99.90;;;;;;4919655;29;20058;-84
2022/06/23 01:46:46;;;;;;;8.07;5.90;;;;;;;;;;4933660;29;20056;-84
2022/06/23 01:49:26;;;;;;;7.78;6.05;;;13.80;99.90;;;;;;4917369;29;20484;-84
2022/06/23 01:51:54;;;;;;;7.40;5.90;;;13.70;99.90;;;;;;4922443;29;20055;-84
2022/06/23 01:54:20;;;;;;;7.70;5.95;;;;;;;;;;4952588;29;20051;-84
2022/06/23 01:56:51;;;;;;;12.68;6.55;;;13.70;99.90;;;;;;4936639;29;20051;-84
2022/06/23 01:59:17;;;;;;;7.95;6.88;;;;;;;;;;4998907;28;20064;-84
2022/06/23 02:01:55;;;;;;;8.68;5.85;;;;;;;;;;5021087;28;20029;-84
2022/06/23 02:04:41;;;;;;;9.55;6.53;;;;;;;;;;5032055;28;20080;-84
2022/06/23 02:07:19;;;;;;;8.35;6.18;;;13.60;99.90;;;;;;5033191;28;20516;-84
2022/06/23 02:09:48;;;;;;;7.68;5.57;;;13.60;99.90;;;;;;5043836;28;20060;-84
2022/06/23 02:12:35;;;;;;;7.15;6.38;;;13.70;99.90;;;;;;5086197;28;20378;-84
2022/06/23 02:15:17;;;;;;;11.55;6.90;;;13.60;99.90;;;;;;5054046;28;20044;-84
2022/06/23 02:17:55;;;;;;;9.48;6.32;;;;;;;;;;5070703;28;20105;-84
2022/06/23 02:20:21;;;;;;;9.45;6.40;;;;;;;;;;5054071;28;20125;-84
2022/06/23 02:22:48;;;;;;;11.45;6.90;;;13.50;99.90;;;;;;5072662;28;20045;-85
2022/06/23 02:25:23;;;;;;;6.20;5.60;;;13.50;99.90;;;;;;5054152;28;20087;-84
2022/06/23 02:28:18;;;;;;;6.97;6.28;;;13.30;99.90;;;;;;5070598;28;20052;-84
2022/06/23 02:30:46;;;;;;;6.63;5.78;;;;;;;;;;5070688;28;20095;-84
2022/06/23 02:33:12;;;;;;;9.38;7.35;;;;;;;;;;5072740;28;20083;-84
2022/06/23 02:36:06;;;;;;;7.72;6.50;;;13.20;99.90;;;;;;5053769;28;20086;-84
2022/06/23 02:38:33;;;;;;;9.23;6.28;;;;;;;;;;5073877;28;20489;-84
2022/06/23 02:41:02;;;;;;;7.78;6.53;;;;;;;;;;5090917;28;20395;-84
2022/06/23 02:43:28;;;;;;;8.90;6.63;;;;;;;;;;5075638;28;20511;-84
2022/06/23 02:45:54;;;;;;;8.02;6.70;;;;;;;;;;5073769;28;20048;-84
2022/06/23 02:48:24;;;;;;;9.60;6.78;;;;;;;;;;5073715;28;20113;-83
2022/06/23 02:51:08;;;;;;;8.05;6.85;;;;;;;;;;5090192;28;20048;-84
2022/06/23 02:53:37;;;;;;;8.07;6.57;;;;;;;;;;5097831;28;20040;-84
2022/06/23 02:56:17;;;;;;;13.65;7.68;;;13.30;99.90;;;;;;5093804;28;20093;-84
2022/06/23 02:58:46;;;;;;;10.50;7.35;;;;;;;;;;5110851;28;20116;-83
2022/06/23 03:01:31;;;;;;;7.50;6.40;;;;;;;;;;5110956;28;20051;-84
2022/06/23 03:04:11;;;;;;;8.80;7.32;;;13.30;99.90;;;;;;5093338;28;20040;-84
2022/06/23 03:06:51;;;;;;;9.93;7.55;;;13.20;99.90;;;;;;5073272;28;20052;-84
2022/06/23 03:09:22;;;;;;;10.52;7.32;;;13.30;99.90;;;;;;5090288;28;20048;-84
2022/06/23 03:11:58;;;;;;;8.57;6.47;;;13.20;99.90;;;;;;5073779;28;20496;-84
2022/06/23 03:14:42;;;;;;;8.35;6.45;;;;;;;;;;5106464;28;20052;-84
2022/06/23 03:17:29;;;;;;;10.02;7.25;;;13.30;99.90;;;;;;5093578;28;20487;-84
2022/06/23 03:20:08;;;;;;;8.27;6.88;;;13.40;99.90;;;;;;5110850;28;20063;-84
2022/06/23 03:22:40;;;;;;;9.48;6.68;;;;;;;;;;5103872;28;20052;-83
2022/06/23 03:25:31;;;;;;;12.32;7.40;;;13.10;99.90;;;;;;5073519;28;20040;-84
2022/06/23 03:28:20;;;;;;;9.35;7.05;;;13.20;99.90;;;;;;5090483;28;20040;-84
2022/06/23 03:30:51;;;;;;;9.27;7.13;;;13.20;99.90;;;;;;5073599;28;20051;-83
2022/06/23 03:33:24;;;;;;;9.25;6.72;;;;;;;;;;5099904;28;20043;-84
2022/06/23 03:35:55;;;;;;;9.38;7.53;;;;;;;;;;5095246;28;20480;-84
2022/06/23 03:41:36;;;;;;;9.60;7.25;;;;;;;;;;5097232;28;20047;-84
2022/06/23 03:44:18;;;;;;;11.50;8.00;;;13.30;99.90;;;;;;5114404;28;20079;-84
2022/06/23 03:46:59;;;;;;;10.57;6.80;;;;;;;;;;5114422;28;20039;-84
2022/06/23 03:49:35;;;;;;;8.88;7.07;;;;;;;;;;5097409;28;20461;-84
2022/06/23 03:52:03;;;;;;;9.77;7.22;;;13.10;99.90;;;;;;5112299;28;20087;-84
2022/06/23 03:54:47;;;;;;;13.82;7.63;;;13.30;99.90;;;;;;5097362;28;20391;-85
2022/06/23 03:57:31;;;;;;;9.60;7.15;;;;;;;;;;5114100;28;20039;-84
2022/06/23 04:00:12;;;;;;;9.43;6.47;;;13.30;99.90;;;;;;5114004;28;20048;-85
2022/06/23 04:02:42;;;;;;;10.77;7.50;;;13.20;99.90;;;;;;5096601;28;20474;-84
2022/06/23 04:05:27;;;;;;;10.15;8.13;;;13.10;99.90;;;;;;5114277;28;20471;-84
2022/06/23 04:07:55;;;;;;;9.48;7.45;;;;;;;;;;5113510;28;20404;-85
2022/06/23 04:10:41;;;;;;;10.40;7.68;;;;;;;;;;5096655;28;20437;-84
2022/06/23 04:13:25;;;;;;;8.52;7.07;;;;;;;;;;5097037;28;20043;-84
2022/06/23 04:15:56;;;;;;;9.77;7.53;;;;;;;;;;5113219;28;20115;-84
2022/06/23 04:18:24;;;;;;;8.98;7.10;;;;;;;;;;5112349;28;20059;-82
2022/06/23 04:20:55;;;;;;;9.20;7.43;;;;;;;;;;5114187;28;20035;-84
2022/06/23 04:23:35;;;;;;;12.82;7.65;;;13.40;99.90;;;;;;5113580;28;20449;-84
2022/06/23 04:26:12;;;;;;;12.93;7.38;;;;;;;;;;5084360;28;20387;-86
2022/06/23 04:29:09;;;;;;;9.27;7.18;;;;;;;;;;5096945;28;20096;-84
2022/06/23 04:31:40;;;;;;;8.70;7.00;;;13.50;99.90;;;;;;4999142;28;20525;-84
2022/06/23 04:34:11;;;;;;;10.25;7.95;;;;;;;;;;4997173;28;20144;-84
2022/06/23 04:36:43;;;;;;;9.73;7.65;;;;;;;;;;5015180;28;20466;-84
2022/06/23 04:39:36;;;;;;;9.90;7.50;;;;;;;;;;5015318;28;20533;-83
2022/06/23 04:42:10;;;;;;;10.38;7.07;;;;;;;;;;5028735;28;20161;-84
2022/06/23 04:44:37;;;;;;;12.20;8.27;;;;;;;;;;5014819;28;20068;-83
2022/06/23 04:47:11;;;;;;;9.77;7.47;;;;;;;;;;5027653;28;20054;-83
2022/06/23 04:49:39;;;;;;;11.98;7.38;;;;;;;;;;4999006;28;20093;-83
2022/06/23 04:52:23;;;;;;;16.13;7.80;;;;;;;;;;5015374;28;20072;-84
2022/06/23 04:54:56;;;;;;;11.85;8.10;;;;;;;;;;4997054;28;20065;-84
2022/06/23 04:57:28;;;;;;;11.35;8.10;;;;;;;;;;4998693;28;20124;-83
2022/06/23 04:59:56;;;;;;;11.05;8.13;;;;;;;;;;4998901;28;20042;-83
2022/06/23 05:02:37;;;;;;;9.98;7.47;;;14.00;99.90;;;;;;5015233;28;20053;-84
2022/06/23 05:05:09;;;;;;;10.52;8.45;;;;;;;;;;5013637;28;20429;-84
2022/06/23 05:07:47;;;;;;;14.48;8.07;;;;;;;;;;5012874;28;20057;-83
2022/06/23 05:10:31;;;;;;;10.65;7.97;;;14.40;99.90;;;;;;5055757;28;20078;-84
2022/06/23 05:13:08;;;;;;;11.43;8.20;;;;;;;;;;5073617;28;20493;-83
2022/06/23 05:15:40;;;;;;;11.23;8.50;;;;;;;;;;5058603;28;20040;-84
2022/06/23 05:18:10;;;;;;;10.63;8.73;;;;;;;;;;5073155;28;20045;-84
2022/06/23 05:20:42;;;;;;;10.18;7.68;;;;;;;;;;5073282;28;20044;-83
2022/06/23 05:23:14;;;;;;;13.05;8.02;;;;;;;;;;5055660;28;20076;-84
2022/06/23 05:25:46;;;;;;;10.02;7.65;;;;;;;;;;5074115;28;20102;-83
2022/06/23 05:28:32;;;;;;;11.02;8.57;;;;;;;;;;5055273;28;20040;-84
2022/06/23 05:31:00;;;;;;;12.60;8.48;;;;;;;;;;5054954;28;20048;-84
2022/06/23 05:33:47;;;;;;;9.77;8.02;;;;;;;;;;5071621;28;20174;-83
2022/06/23 05:36:18;;;;;;;13.52;7.65;;;;;;;;;;5096843;27;20127;-83
2022/06/23 05:39:10;;;;;;;9.35;7.25;;;;;;;;;;5115755;27;20113;-83
2022/06/23 05:41:47;;;;;;;9.05;7.43;;;;;;;;;;5070149;28;20052;-83
2022/06/23 05:44:28;;;;;;;9.98;8.00;;;15.40;99.90;;;;;;5053117;28;20044;-83
2022/06/23 05:46:55;;;;;;;11.55;8.07;;;;;;;;;;5053952;28;20139;-83
2022/06/23 05:49:26;;;;;;;10.40;8.75;;;15.50;99.90;;;;;;5070435;28;20040;-84
2022/06/23 05:52:03;;;;;;;10.70;8.50;;;15.70;99.90;;;;;;5054229;28;20063;-83
2022/06/23 05:54:34;;;;;;;12.02;8.43;;;;;;;;;;5053446;28;20041;-82
2022/06/23 05:57:22;;;;;;;9.82;8.32;;;16.00;99.90;;;;;;5053298;28;20036;-83
2022/06/23 06:00:01;;;;;;;12.23;8.25;;;15.90;99.90;;;;;;5053165;28;20063;-83
2022/06/23 06:02:42;;;;;;;12.02;8.90;;;16.10;99.90;;;;;;5036657;28;20048;-83
2022/06/23 06:05:19;;;;;;;11.70;8.45;;;16.00;99.90;;;;;;5036549;28;20064;-83
2022/06/23 06:07:45;;;;;;;10.70;8.60;;;;;;;;;;5038113;28;20059;-85
2022/06/23 06:10:19;;;;;;;12.48;8.52;;;16.30;99.90;;;;;;5053275;28;20044;-83
2022/06/23 06:12:45;;;;;;;9.98;8.93;;;;;;;;;;5053167;28;20052;-83
2022/06/23 06:15:17;;;;;;;13.82;8.77;;;;;;;;;;5053286;28;20047;-83
2022/06/23 06:17:44;;;;;;;13.93;8.60;;;;;;;;;;5061106;27;20055;-83
2022/06/23 06:20:11;;;;;;;13.05;8.77;;;16.50;99.90;;;;;;5097692;27;20131;-82
2022/06/23 06:23:15;;;;;;;11.82;8.82;;;16.60;99.90;;;;;;5114612;27;20047;-83
2022/06/23 06:25:47;;;;;;;11.90;9.05;;;16.70;99.90;;;;;;5114897;27;20046;-82
2022/06/23 06:28:16;;;;;;;12.27;9.32;;;;;;;;;;5112694;27;20035;-83
2022/06/23 06:30:53;;;;;;;14.63;9.13;;;16.90;99.90;;;;;;5091735;28;20449;-83
2022/06/23 06:33:41;;;;;;;10.40;9.00;;;17.00;99.90;;;;;;5104713;27;20043;-83
2022/06/23 06:36:31;;;;;;;10.00;8.68;;;;;;;;;;5096425;27;20865;-82
2022/06/23 06:39:19;;;;;;;14.70;9.30;;;17.20;99.90;;;;;;5097237;27;20051;-82
2022/06/23 06:41:57;;;;;;;12.18;8.63;;;17.40;99.90;;;;;;5087700;28;20099;-83
2022/06/23 06:44:23;;;;;;;11.27;8.32;;;;;;;;;;5077023;28;20040;-82
2022/06/23 06:46:50;;;;;;;12.32;9.90;;;;;;;;;;5077023;28;20135;-83
2022/06/23 06:49:19;;;;;;;13.57;9.18;;;17.70;99.90;;;;;;5094242;28;20116;-83
2022/06/23 06:51:47;;;;;;;11.63;9.88;;;17.90;99.90;;;;;;5097725;28;20043;-83
2022/06/23 06:54:40;;;;;;;11.85;8.75;;;17.70;99.90;;;;;;5097402;28;20050;-83
2022/06/23 06:57:12;;;;;;;10.57;9.30;;;17.80;99.90;;;;;;5114268;28;20074;-83
2022/06/23 06:59:58;;;;;;;10.73;8.88;;;17.90;99.90;;;;;;5113985;28;20054;-83
2022/06/23 07:02:24;;;;;;;12.32;9.05;;;;;;;;;;5093825;28;20100;-83
2022/06/23 07:04:57;;;;;;;9.32;8.25;;;18.00;99.90;;;;;;5077108;28;20051;-82
2022/06/23 07:07:40;;;;;;;12.83;8.30;;;18.20;99.90;;;;;;5077170;28;20067;-83
2022/06/23 07:10:16;;;;;;;9.00;8.07;;;;;;;;;;5095982;28;20556;-83
2022/06/23 07:12:52;;;;;;;11.65;7.57;;;18.30;99.90;;;;;;5081363;27;20047;-82
2022/06/23 07:15:18;;;;;;;11.30;7.93;;;;;;;;;;5100533;27;20045;-83
2022/06/23 07:17:56;;;;;;;11.15;7.28;;;18.60;99.90;;;;;;5101187;27;20503;-83
2022/06/23 07:20:25;;;;;;;10.73;7.13;;;18.60;99.90;;;;;;5118382;27;20043;-83
2022/06/23 07:23:07;;;;;;;13.35;7.90;;;18.80;99.90;;;;;;5117975;27;20047;-83
2022/06/23 07:25:37;;;;;;;7.95;6.88;;;19.00;99.90;;;;;;5084621;28;20044;-83
2022/06/23 07:28:12;;;;;;;10.43;7.43;;;18.90;99.90;;;;;;5097657;28;20051;-83
2022/06/23 07:30:44;;;;;;;11.75;7.72;;;19.00;99.90;;;;;;5080554;28;20088;-82
2022/06/23 07:33:30;;;;;;;9.98;7.18;;;19.00;99.90;;;;;;5097427;28;20047;-83
2022/06/23 07:36:35;;;;;;;10.73;7.53;;;19.20;99.90;;;;;;5095429;27;20035;-83
2022/06/23 07:39:10;;;;;;;9.82;6.50;;;19.30;99.90;;;;;;5082775;27;20491;-83
2022/06/23 07:41:48;;;;;;;11.27;6.05;;;19.30;99.90;;;;;;5100915;27;20042;-83
2022/06/23 07:44:23;;;;;;;8.32;5.80;;;19.50;99.90;;;;;;5100730;27;20123;-82
2022/06/23 07:46:49;;;;;;;6.90;6.13;;;;;;;;;;5084041;28;20054;-82
2022/06/23 07:49:16;;;;;;;9.05;6.75;;;;;;;;;;5097439;28;20083;-82
2022/06/23 07:51:43;;;;;;;8.10;5.93;;;;;;;;;;5097210;28;20083;-83
2022/06/23 07:54:15;;;;;;;9.57;6.72;;;19.80;99.90;;;;;;5097226;28;20050;-83
2022/06/23 07:56:41;;;;;;;10.93;7.22;;;;;;;;;;5090367;27;20043;-83
2022/06/23 07:59:13;;;;;;;13.60;7.97;;;20.00;99.90;;;;;;5100320;27;20054;-85
2022/06/23 08:01:49;;;;;;;11.38;7.47;;;20.00;99.90;;;;;;5117587;27;20127;-88
2022/06/23 08:04:27;;;;;;;14.00;7.93;;;20.30;99.90;;;;;;5101191;27;20073;-89
2022/06/23 08:06:56;;;;;;;9.80;6.72;;;20.40;99.90;;;;;;5116033;27;20043;-86
2022/06/23 08:09:30;;;;;;;8.00;6.95;;;20.50;99.90;;;;;;5117905;27;20605;-89
2022/06/23 08:14:48;;;;;;;11.65;7.22;;;20.60;99.90;;;;;;5117756;27;20043;-86
2022/06/23 08:17:16;;;;;;;12.50;7.22;;;20.60;99.90;;;;;;5097897;27;20031;-89
2022/06/23 08:19:54;;;;;;;12.20;7.97;;;20.70;99.90;;;;;;5096969;28;20055;-85
2022/06/23 08:22:20;;;;;;;11.95;7.72;;;;;;;;;;5079261;28;20035;-86
2022/06/23 08:24:48;;;;;;;13.75;6.85;;;20.70;99.90;;;;;;5080129;28;20054;-85
2022/06/23 08:27:20;;;;;;;14.60;7.05;;;20.70;99.90;;;;;;5080456;28;20047;-84
2022/06/23 08:29:54;;;;;;;13.13;6.78;;;21.10;99.90;;;;;;5103099;28;20515;-82
2022/06/23 08:32:21;;;;;;;9.60;6.88;;;;;;;;;;5099695;27;20079;-83
2022/06/23 08:34:59;;;;;;;7.68;6.30;;;21.30;99.90;;;;;;5113903;27;20035;-83
2022/06/23 08:37:25;;;;;;;11.95;6.60;;;21.40;99.90;;;;;;5095995;28;20062;-83
2022/06/23 08:40:05;;;;;;;9.13;6.82;;;21.30;99.90;;;;;;5113109;28;20043;-83
2022/06/23 08:42:50;;;;;;;6.45;5.25;;;21.40;99.90;;;;;;5113098;28;20093;-83
2022/06/23 08:45:49;;;;;;;8.82;5.65;;;21.70;99.90;;;;;;5093805;28;20488;-83
2022/06/23 08:48:22;;;;;;;10.18;6.10;;;21.90;99.90;;;;;;5025279;28;20123;-83
2022/06/23 08:51:17;;;;;;;10.43;5.18;;;21.80;99.90;;;;;;5014841;28;20563;-83
2022/06/23 08:54:01;;;;;;;14.23;7.35;;;21.70;99.90;;;;;;5014981;28;20077;-83
2022/06/23 08:56:38;;;;;;;;;;;22.00;99.90;;;;;;4998795;28;20128;-83
2022/06/23 08:59:22;;;;;;;7.07;6.30;;;22.00;99.90;;;;;;4998402;28;19921;-83
2022/06/23 09:02:00;;;;;;;11.25;6.38;;;22.10;99.90;;;;;;4995147;28;20521;-83
2022/06/23 09:04:35;;;;;;;6.03;5.35;;;22.30;99.90;;;;;;4995141;28;20136;-84
2022/06/23 09:07:13;;;;;;;8.18;5.40;;;22.40;99.90;;;;;;4995031;28;20568;-83
2022/06/23 09:09:53;;;;;;;15.25;5.57;;;22.30;99.90;;;;;;5021593;28;20050;-84
2022/06/23 09:12:44;;;;;;;7.72;5.75;;;22.50;99.90;;;;;;4998157;28;20111;-84
2022/06/23 09:15:29;;;;;;;5.90;5.05;;;22.50;99.90;;;;;;5014486;28;20108;-83
2022/06/23 09:18:00;;;;;;;9.10;5.43;;;22.70;99.90;;;;;;5013998;28;20053;-83
2022/06/23 09:20:55;;;;;;;10.10;5.93;;;22.90;99.90;;;;;;4998631;28;20556;-83
2022/06/23 09:23:21;;;;;;;9.00;5.18;;;;;;;;;;4978743;28;20042;-83
2022/06/23 09:25:54;;;;;;;12.63;5.22;;;23.10;99.90;;;;;;5054137;28;20052;-83
2022/06/23 09:28:54;;;;;;;8.40;4.07;;;23.40;99.90;;;;;;5074995;28;20047;-83
2022/06/23 09:31:51;;;;;;;7.13;4.10;;;23.50;99.90;;;;;;5030168;28;20054;-84
2022/06/23 09:34:39;;;;;;;7.78;4.35;;;23.50;99.90;;;;;;4997811;28;20136;-86
2022/06/23 09:37:22;;;;;;;8.63;5.05;;;23.50;99.90;;;;;;4997343;28;20064;-83
2022/06/23 09:40:19;;;;;;;10.00;5.45;;;23.60;99.90;;;;;;4996450;28;20065;-84
2022/06/23 09:43:05;;;;;;;4.50;4.03;;;23.80;99.90;;;;;;5013524;28;20045;-83
2022/06/23 09:45:46;;;;;;;8.25;4.05;;;24.00;99.90;;;;;;5030791;28;20049;-82
2022/06/23 09:48:32;;;;;;;10.30;4.55;;;24.00;99.90;;;;;;5013538;28;20103;-84
2022/06/23 09:51:32;;;;;;;7.75;4.80;;;24.20;99.90;;;;;;5029377;28;20047;-84
2022/06/23 09:54:16;;;;;;;5.63;4.43;;;24.40;99.90;;;;;;4997356;28;20061;-83
2022/06/23 09:57:01;;;;;;;5.13;4.18;;;24.50;99.90;;;;;;5026638;28;20430;-84
2022/06/23 09:59:44;;;;;;;7.68;4.15;;;24.40;99.90;;;;;;4977971;28;20141;-83
2022/06/23 10:02:47;;;;;;;6.13;3.20;;;24.40;99.90;;;;;;4979807;28;20049;-83
2022/06/23 10:05:31;;;;;;;6.35;3.05;;;24.60;99.90;;;;;;5013551;28;20088;-84
2022/06/23 10:08:08;;;;;;;3.75;3.38;;;24.60;99.90;;;;;;5036870;28;20192;-83
2022/06/23 10:10:43;;;;;;;3.13;2.83;;;24.80;99.90;;;;;;5074411;28;20040;-84
2022/06/23 10:13:18;;;;;;;3.75;2.58;;;24.90;99.90;;;;;;5073165;28;20496;-84
2022/06/23 10:16:08;;;;;;;3.35;2.90;;;25.60;99.90;;;;;;5091073;28;20495;-84
2022/06/23 10:19:11;;;;;;;6.63;2.90;;;25.10;99.90;;;;;;5090611;28;20048;-83
2022/06/23 10:21:40;;;;;;;9.27;2.83;;;25.20;99.90;;;;;;5091153;28;20044;-83
2022/06/23 10:24:28;;;;;;;3.95;2.80;;;25.20;99.90;;;;;;5089112;28;20108;-84
2022/06/23 10:27:36;;;;;;;2.67;2.42;;;25.30;99.90;;;;;;5090808;28;20476;-83
2022/06/23 10:30:29;;;;;;;11.82;2.80;;;25.10;99.90;;;;;;5074115;28;20052;-83
2022/06/23 10:33:28;;;;;;;4.63;2.75;;;25.60;99.90;;;;;;5073865;28;20409;-84
2022/06/23 10:36:03;;;;;;;4.28;2.60;;;25.60;99.90;;;;;;5074968;28;20048;-84
2022/06/23 10:38:57;;;;;;;7.95;2.90;;;25.80;99.90;;;;;;5089621;28;20059;-84
2022/06/23 10:41:44;;;;;;;7.43;2.67;;;25.70;99.90;;;;;;5069019;28;20055;-84
2022/06/23 10:44:37;;;;;;;3.33;2.20;;;26.00;99.90;;;;;;5073599;28;20493;-84
2022/06/23 10:47:19;;;;;;;7.50;2.97;;;25.90;99.90;;;;;;5073166;28;20036;-84
2022/06/23 10:49:56;;;;;;;4.72;3.30;;;26.10;99.90;;;;;;5107198;28;20036;-81
2022/06/23 10:52:48;;;;;;;3.35;2.25;;;26.20;99.90;;;;;;5093272;28;20096;-82
2022/06/23 10:55:49;;;;;;;3.17;2.28;;;26.30;99.90;;;;;;5111263;28;20039;-81
2022/06/23 10:58:40;;;;;;;4.50;2.70;;;26.50;99.90;;;;;;5094344;28;20565;-81
2022/06/23 11:01:19;;;;;;;6.72;2.80;;;26.20;99.90;;;;;;5051851;28;20082;-81
2022/06/23 11:04:06;;;;;;;4.38;2.50;;;26.50;99.90;;;;;;5052993;28;20117;-82
2022/06/23 11:06:45;;;;;;;6.82;2.38;;;26.60;99.90;;;;;;5052491;28;20493;-81
2022/06/23 11:09:29;;;;;;;5.93;2.10;;;26.50;99.90;;;;;;5052624;28;20531;-81
2022/06/23 11:12:02;;;;;;;4.03;2.90;;;26.50;99.90;;;;;;5049571;28;20048;-88
2022/06/23 11:14:37;;;;;;;4.35;2.35;;;26.70;99.90;;;;;;5054534;28;20097;-85
2022/06/23 11:17:16;;;;;;;3.67;2.40;;;26.80;99.90;;;;;;5053628;28;20131;-81
2022/06/23 11:20:15;;;;;;;4.53;2.35;;;26.80;99.90;;;;;;5036420;28;20147;-84
2022/06/23 11:22:47;;;;;;;3.38;2.63;;;26.80;99.90;;;;;;5047984;28;20109;-84
2022/06/23 11:25:25;;;;;;;2.90;2.55;;;27.00;99.90;;;;;;5038394;28;20072;-84
2022/06/23 11:28:08;;;;;;;2.33;2.10;;;27.10;99.90;;;;;;5067395;28;20048;-84
2022/06/23 11:31:00;;;;;;;5.90;2.72;;;27.30;99.90;;;;;;5066966;28;20076;-87
2022/06/23 11:33:59;;;;;;;3.25;2.58;;;27.20;99.90;;;;;;5017992;28;20093;-81
2022/06/23 11:37:02;;;;;;;8.00;3.00;;;27.30;99.90;;;;;;5071147;28;20389;-80
2022/06/23 11:39:36;;;;;;;4.57;2.80;;;27.30;99.90;;;;;;5049953;28;20096;-86
2022/06/23 11:42:14;;;;;;;5.10;2.85;;;27.20;99.90;;;;;;5017425;28;20512;-85
2022/06/23 11:45:08;;;;;;;6.88;2.80;;;27.60;99.90;;;;;;5034637;28;20080;-86
2022/06/23 11:47:36;;;;;;;;;;;27.40;99.90;;;;;;5032265;28;20045;-86
2022/06/23 11:50:25;;;;;;;2.88;2.50;;;27.50;99.90;;;;;;5038406;28;20027;-83
2022/06/23 11:53:23;;;;;;;4.40;2.60;;;27.80;99.90;;;;;;5037954;28;20048;-84
2022/06/23 11:55:58;;;;;;;5.57;3.50;;;27.90;99.90;;;;;;4974829;28;20057;-81
2022/06/23 11:58:40;;;;;;;4.50;3.20;;;27.70;99.90;;;;;;4961693;28;20046;-81
2022/06/23 12:01:15;;;;;;;3.72;2.50;;;27.80;99.90;;;;;;4962502;28;20128;-84
2022/06/23 12:04:03;;;;;;;7.13;2.92;;;27.90;99.90;;;;;;4962534;28;20058;-82
2022/06/23 12:06:31;;;;;;;4.63;2.90;;;27.90;99.90;;;;;;4977772;28;20058;-81
2022/06/23 12:09:18;;;;;;;9.90;2.80;;;27.90;99.90;;;;;;4961326;28;20054;-81
2022/06/23 12:11:44;;;;;;;3.13;2.45;;;28.10;99.90;;;;;;4962081;28;20446;-82
2022/06/23 12:14:10;;;;;;;4.47;3.00;;;28.10;99.90;;;;;;4960710;28;20058;-82
2022/06/23 12:16:46;;;;;;;9.30;2.60;;;28.20;99.90;;;;;;4993885;28;20072;-81
2022/06/23 12:19:15;;;;;;;3.90;2.78;;;28.40;99.90;;;;;;5013561;28;20137;-82
2022/06/23 12:21:50;;;;;;;3.33;2.80;;;28.40;99.90;;;;;;5014891;28;20125;-82
2022/06/23 12:24:55;;;;;;;4.78;2.85;;;28.20;99.90;;;;;;5015354;28;20104;-81
2022/06/23 12:27:32;;;;;;;3.35;2.53;;;28.50;99.90;;;;;;5011984;28;20042;-81
2022/06/23 12:30:10;;;;;;;10.23;2.80;;;28.60;99.90;;;;;;5009435;28;20140;-81
2022/06/23 12:32:47;;;;;;;7.72;2.88;;;28.50;99.90;;;;;;5008941;28;20130;-82
2022/06/23 12:35:30;;;;;;;7.60;2.60;;;27.90;99.90;;;;;;5069198;28;20460;-84
2022/06/23 12:38:14;;;;;;;7.95;2.42;;;28.70;99.90;;;;;;5023337;28;20398;-84
2022/06/23 12:40:49;;;;;;;5.55;3.00;;;28.70;99.90;;;;;;5033979;28;20067;-85
2022/06/23 12:43:37;;;;;;;4.30;2.20;;;30.20;99.90;;;;;;5035021;28;20132;-84
2022/06/23 12:46:24;;;;;;;5.85;2.58;;;29.00;99.90;;;;;;5029559;28;20144;-83
2022/06/23 12:49:32;;;;;;;4.50;2.95;;;29.00;99.90;;;;;;5018210;28;20056;-81
2022/06/23 12:52:17;;;;;;;5.35;1.98;;;29.30;99.90;;;;;;5034626;28;20493;-81
2022/06/23 12:55:07;;;;;;;2.45;2.25;;;29.30;99.90;;;;;;5047861;28;20064;-82
2022/06/23 12:57:50;;;;;;;4.15;2.40;;;29.50;99.90;;;;;;5030104;28;20053;-81
2022/06/23 13:00:42;;;;;;;3.13;2.30;;;29.50;99.90;;;;;;5072398;28;20079;-81
2022/06/23 13:03:30;;;;;;;3.90;2.30;;;29.60;99.90;;;;;;5055268;28;20147;-81
2022/06/23 13:06:14;;;;;;;2.15;1.98;;;29.70;99.90;;;;;;5071173;28;20095;-81
2022/06/23 13:08:49;;;;;;;5.25;1.95;;;29.90;99.90;;;;;;5088280;28;20098;-81
2022/06/23 13:11:24;;;;;;;5.80;1.85;;;30.00;99.90;;;;;;5089013;28;20229;-81
2022/06/23 13:14:07;;;;;;;5.35;2.30;;;29.90;99.90;;;;;;5088962;28;20046;-81
2022/06/23 13:16:55;;;;;;;4.47;2.80;;;30.20;99.90;;;;;;5073860;28;20036;-81
2022/06/23 13:19:33;;;;;;;4.95;2.70;;;30.20;99.90;;;;;;5075394;28;20048;-81
2022/06/23 13:22:05;;;;;;;3.15;2.17;;;30.10;99.90;;;;;;5092310;28;20044;-81
2022/06/23 13:24:34;;;;;;;11.63;2.22;;;30.20;99.90;;;;;;5073356;28;20051;-81
2022/06/23 13:27:00;;;;;;;3.88;2.10;;;30.50;99.90;;;;;;5090678;28;20484;-81
2022/06/23 13:29:35;;;;;;;6.68;2.05;;;30.50;99.90;;;;;;5124556;27;20055;-83
2022/06/23 13:32:40;;;;;;;3.55;2.15;;;30.40;99.90;;;;;;5054769;28;20080;-81
2022/06/23 13:35:09;;;;;;;3.10;1.88;;;30.50;99.90;;;;;;5071534;28;20049;-81
2022/06/23 13:37:54;;;;;;;3.17;2.03;;;30.80;99.90;;;;;;5066450;28;20056;-82
2022/06/23 13:40:53;;;;;;;6.22;1.90;;;30.60;99.90;;;;;;5093416;28;20032;-81
2022/06/23 13:43:33;;;;;;;2.05;1.95;;;30.60;99.90;;;;;;5078044;28;20087;-82
2022/06/23 13:46:17;;;;;;;3.03;2.30;;;30.80;99.90;;;;;;5094680;28;20040;-82
2022/06/23 13:48:46;;;;;;;2.85;2.00;;;30.90;99.90;;;;;;5094942;28;20123;-81
2022/06/23 13:51:15;;;;;;;3.38;1.77;;;30.90;99.90;;;;;;5106969;28;20040;-81
2022/06/23 13:53:45;;;;;;;4.18;1.85;;;31.10;99.90;;;;;;5094724;28;20040;-82
2022/06/23 13:56:21;;;;;;;3.25;2.08;;;31.00;99.90;;;;;;5094533;28;20036;-89
2022/06/23 13:58:58;;;;;;;8.38;2.60;;;31.20;99.90;;;;;;5081005;28;20040;-91
2022/06/23 14:01:47;;;;;;;3.22;2.28;;;31.10;99.90;;;;;;5091858;28;20032;-82
2022/06/23 14:04:31;;;;;;;5.18;2.00;;;31.40;99.90;;;;;;5091864;28;20040;-91
2022/06/23 14:07:02;;;;;;;3.42;1.70;;;31.30;99.90;;;;;;5075981;28;20051;-87
2022/06/23 14:09:34;;;;;;;3.50;2.20;;;31.60;99.90;;;;;;5091393;28;20523;-82
2022/06/23 14:12:31;;;;;;;2.28;2.08;;;31.70;99.90;;;;;;5091235;28;20189;-80
2022/06/23 14:15:12;;;;;;;6.00;2.75;;;31.70;99.90;;;;;;5075033;28;20051;-84
2022/06/23 14:17:43;;;;;;;2.58;1.90;;;31.70;99.90;;;;;;5067312;28;20048;-92
2022/06/23 14:20:21;;;;;;;3.42;1.80;;;32.20;99.90;;;;;;5094793;28;20051;-94
2022/06/23 14:23:11;;;;;;;3.38;2.20;;;32.20;99.90;;;;;;5095797;28;20036;-95
2022/06/23 14:25:48;;;;;;;3.58;2.72;;;31.90;99.90;;;;;;5112531;28;20054;-93